AirNav   Jet Aviation Boston
 
 1013 users online  

H97 Pawnee Municipal Airport
Pawnee, Oklahoma, USA

GOING TO PAWNEE?


FAA INFORMATION EFFECTIVE 24 MAY 2018

Location

FAA Identifier: H97
Lat/Long: 36-23-00.1880N / 096-48-37.1250W
36-23.003133N / 096-48.618750W
36.3833856 / -96.8103125
(estimated)
Elevation: 875 ft. / 267 m (estimated)
Variation: 06E (1985)
From city: 2 miles N of PAWNEE, OK
Time zone: UTC -5 (UTC -6 during Standard Time)
Zip code: 74058

Airport Operations

Airport use: Open to the public
Activation date: 11/1965
Control tower: no
ARTCC: KANSAS CITY CENTER
FSS: MC ALESTER FLIGHT SERVICE STATION
NOTAMs facility: MLC (NOTAM-D service available)
Attendance: UNATNDD
FOR ARPT ATTENDANT CALL 918-762-3166.
Wind indicator: yes
Segmented circle: yes

Airport Communications

CTAF: 122.9
WX ASOS at SWO (19 nm SW): 135.725 (405-743-8150)

Nearby radio navigation aids

VOR radial/distance  VOR name  Freq  Var
SWOr047/16.2STILLWATER VOR/DME108.4007E
PERr136/27.5PIONEER VORTAC113.2006E

 
NDB name  Hdg/Dist  Freq  Var  ID
CUSHING352/29.724205ECUH -.-. ..- ....
WILLIAM POGUE286/34.236206EOWP --- .-- .--.

Airport Services

Parking: tiedowns
Airframe service: NONE
Powerplant service: NONE
Bottled oxygen: NONE
Bulk oxygen: NONE

Runway Information

Runway 18/36

Dimensions: 2130 x 100 ft. / 649 x 30 m
SOUTH 300 FT MUDDY AND SOFT WHEN WET.
Surface: turf, in good condition
RUNWAY 18  RUNWAY 36
Traffic pattern: leftleft
Obstructions: 40 ft. trees, 250 ft. from runway, 75 ft. right of centerline, 6:1 slope to clear30 ft. trees, 75 ft. left of centerline

Airport Ownership and Management from official FAA records

Ownership: Publicly-owned
Owner: CITY OF PAWNEE
CITY HALL, 510 ILLINOIS ST
PAWNEE, OK 74058
Phone 918-762-2110
Manager: BRAD SEWELL
CITY HALL, 510 ILLINOIS ST
PAWNEE, OK 74058
Phone 918-762-2110
MAYOR.

Airport Operational Statistics

Aircraft operations: 100/year *
100% transient general aviation
* for 12-month period ending 20 September 2017

Instrument Procedures

There are no published instrument procedures at H97.

Some nearby airports with instrument procedures:

KSWO - Stillwater Regional Airport (19 nm SW)
F22 - Perry Municipal Airport (23 nm W)
KPNC - Ponca City Regional Airport (25 nm NW)
KCUH - Cushing Municipal Airport (26 nm S)
KBKN - Blackwell-Tonkawa Municipal Airport (34 nm NW)
 
Loc | Ops | Rwys | IFR | FBO | Links
Com | Nav | Svcs | Stats | Notes

AirNav Hotels Sweepstakes
 
Area around H97 (Pawnee Municipal Airport)
 
Road maps at: MapQuest Bing Google
 
Aerial photo
WARNING: Photo may not be current or correct
Aerial photo of H97 (Pawnee Municipal Airport)
Do you have a better or more recent aerial photo of Pawnee Municipal Airport that you would like to share? If so, please send us your photo.

 
Sectional chart

 
Airport distance calculator
Flying to Pawnee Municipal Airport? Find the distance to fly.

From to H97

Sunrise and sunset
Times for 24-May-2018
 Local
(UTC-5)
 Zulu
(UTC)
Morning civil twilight05:4610:46
Sunrise06:1511:15
Sunset20:3301:33
Evening civil twilight21:0202:02

Current date and time
Zulu (UTC)  24-May-2018 23:38:03
Local (UTC-5)  24-May-2018 18:38:03
 
METAR
KSWO 
19nm SW 
242309Z 15003KT 9SM -RA FEW070 FEW100 BKN120 23/20 A2998 RMK AO2 LTG DSNT SW P0001 T02280200
KPNC 
25nm NW 
242253Z AUTO 18006KT 10SM CLR 24/17 A2995 RMK AO2 LTG DSNT S SLP133 T02390167
KCUH 
26nm S 
242315Z AUTO 00000KT 10SM SCT060 27/18 A2998 RMK AO2 T02670182
KBKN 
34nm NW 
242315Z AUTO 17007KT 10SM CLR 23/19 A2998 RMK AO2
KOWP 
34nm E 
242315Z AUTO 19007KT 10SM SCT110 31/20 A3000 RMK AO2 T03120195
TAF
KPNC 
25nm NW 
241959Z 2420/2518 18010KT P6SM SCT040 BKN250 TEMPO 2420/2421 2SM -RA FM250100 14007KT P6SM BKN250 FM251200 19008KT P6SM SCT050 BKN100 PROB30 2512/2517 3SM -TSRA BKN050CB OVC100
NOTAMs
Click for the latest NOTAMs
NOTAMs are issued by the DoD/FAA and will open in a separate window not controlled by AirNav.

 

 
 

Would you like to see your business listed on this page?

 If your business provides an interesting product or service to pilots, flight crews, aircraft, or users of the Pawnee Municipal Airport, you should consider listing it here.  To start the listing process, click on the button below
 
Add a business
 

Other Pages about Pawnee Municipal Airport

Update a link
 
Copyright © AirNav, LLC. All rights reserved. Privacy Policy  Contact